sensor_id;sensor_type;location;lat;lon;timestamp;pressure;altitude;pressure_sealevel;temperature;humidity
75585;BME280;64162;53.508;10.476;2024-01-11T00:00:46;102919.47;;;1.26;69.98
75585;BME280;64162;53.508;10.476;2024-01-11T00:03:13;102918.69;;;1.24;70.28
75585;BME280;64162;53.508;10.476;2024-01-11T00:05:39;102922.41;;;1.42;70.05
75585;BME280;64162;53.508;10.476;2024-01-11T00:08:06;102911.84;;;1.56;69.91
75585;BME280;64162;53.508;10.476;2024-01-11T00:10:33;102888.66;;;1.62;69.03
75585;BME280;64162;53.508;10.476;2024-01-11T00:12:59;102903.88;;;1.93;67.56
75585;BME280;64162;53.508;10.476;2024-01-11T00:15:26;102875.38;;;1.79;68.87
75585;BME280;64162;53.508;10.476;2024-01-11T00:17:53;102885.25;;;1.04;71.23
75585;BME280;64162;53.508;10.476;2024-01-11T00:20:21;102867.72;;;1.21;70.80
75585;BME280;64162;53.508;10.476;2024-01-11T00:22:48;102873.25;;;1.06;71.22
75585;BME280;64162;53.508;10.476;2024-01-11T00:25:14;102871.16;;;1.50;69.63
75585;BME280;64162;53.508;10.476;2024-01-11T00:27:41;102874.41;;;0.96;71.58
75585;BME280;64162;53.508;10.476;2024-01-11T00:30:10;102875.81;;;1.91;68.33
75585;BME280;64162;53.508;10.476;2024-01-11T00:32:37;102863.75;;;1.13;70.76
75585;BME280;64162;53.508;10.476;2024-01-11T00:35:03;102865.88;;;1.26;71.19
75585;BME280;64162;53.508;10.476;2024-01-11T00:37:30;102872.56;;;1.86;68.81
75585;BME280;64162;53.508;10.476;2024-01-11T00:39:57;102857.69;;;1.45;70.14
75585;BME280;64162;53.508;10.476;2024-01-11T00:42:24;102853.66;;;1.92;69.07
75585;BME280;64162;53.508;10.476;2024-01-11T00:44:50;102850.41;;;1.33;69.90
75585;BME280;64162;53.508;10.476;2024-01-11T00:47:17;102855.84;;;1.50;70.09
75585;BME280;64162;53.508;10.476;2024-01-11T00:49:46;102861.25;;;1.67;69.84
75585;BME280;64162;53.508;10.476;2024-01-11T00:52:13;102843.78;;;1.81;69.23
75585;BME280;64162;53.508;10.476;2024-01-11T00:54:40;102836.09;;;1.27;69.99
75585;BME280;64162;53.508;10.476;2024-01-11T00:57:08;102834.63;;;1.76;69.37
75585;BME280;64162;53.508;10.476;2024-01-11T00:59:34;102830.47;;;1.45;69.83
75585;BME280;64162;53.508;10.476;2024-01-11T01:02:01;102814.34;;;1.43;70.08
75585;BME280;64162;53.508;10.476;2024-01-11T01:04:28;102792.84;;;0.95;71.69
75585;BME280;64162;53.508;10.476;2024-01-11T01:06:54;102805.41;;;1.30;71.31
75585;BME280;64162;53.508;10.476;2024-01-11T01:09:23;102820.41;;;1.67;70.15
75585;BME280;64162;53.508;10.476;2024-01-11T01:11:50;102797.50;;;1.10;71.41
75585;BME280;64162;53.508;10.476;2024-01-11T01:14:19;102808.25;;;1.47;71.48
75585;BME280;64162;53.508;10.476;2024-01-11T01:16:49;102813.69;;;1.37;70.62
75585;BME280;64162;53.508;10.476;2024-01-11T01:19:15;102822.25;;;1.06;72.45
75585;BME280;64162;53.508;10.476;2024-01-11T01:21:42;102793.22;;;1.38;71.20
75585;BME280;64162;53.508;10.476;2024-01-11T01:24:08;102797.13;;;1.22;71.83
75585;BME280;64162;53.508;10.476;2024-01-11T01:26:37;102822.00;;;1.71;70.31
75585;BME280;64162;53.508;10.476;2024-01-11T01:29:03;102815.13;;;1.17;70.88
75585;BME280;64162;53.508;10.476;2024-01-11T01:31:31;102828.44;;;2.07;68.07
75585;BME280;64162;53.508;10.476;2024-01-11T01:34:09;102835.16;;;1.57;70.19
75585;BME280;64162;53.508;10.476;2024-01-11T01:36:38;102815.84;;;1.21;71.86
75585;BME280;64162;53.508;10.476;2024-01-11T01:39:05;102815.06;;;1.20;71.52
75585;BME280;64162;53.508;10.476;2024-01-11T01:41:32;102816.25;;;1.37;70.63
75585;BME280;64162;53.508;10.476;2024-01-11T01:43:58;102810.84;;;1.18;72.09
75585;BME280;64162;53.508;10.476;2024-01-11T01:46:25;102802.16;;;0.96;71.99
75585;BME280;64162;53.508;10.476;2024-01-11T01:48:56;102808.41;;;1.43;70.86
75585;BME280;64162;53.508;10.476;2024-01-11T01:51:26;102822.56;;;1.53;70.05
75585;BME280;64162;53.508;10.476;2024-01-11T01:53:53;102810.69;;;1.24;71.75
75585;BME280;64162;53.508;10.476;2024-01-11T01:56:21;102836.00;;;1.58;70.61
75585;BME280;64162;53.508;10.476;2024-01-11T01:58:48;102848.63;;;1.62;69.89
75585;BME280;64162;53.508;10.476;2024-01-11T02:01:17;102859.69;;;1.63;70.13
75585;BME280;64162;53.508;10.476;2024-01-11T02:03:52;102866.50;;;1.35;70.13
75585;BME280;64162;53.508;10.476;2024-01-11T02:06:22;102859.91;;;1.27;71.01
75585;BME280;64162;53.508;10.476;2024-01-11T02:08:52;102869.44;;;1.78;69.72
75585;BME280;64162;53.508;10.476;2024-01-11T02:11:25;102872.22;;;1.43;69.79
75585;BME280;64162;53.508;10.476;2024-01-11T02:13:53;102865.13;;;1.52;69.99
75585;BME280;64162;53.508;10.476;2024-01-11T02:16:20;102863.78;;;1.41;70.43
75585;BME280;64162;53.508;10.476;2024-01-11T02:18:46;102855.00;;;0.91;72.01
75585;BME280;64162;53.508;10.476;2024-01-11T02:21:14;102859.28;;;1.49;70.68
75585;BME280;64162;53.508;10.476;2024-01-11T02:24:07;102864.94;;;1.58;69.90
75585;BME280;64162;53.508;10.476;2024-01-11T02:26:34;102866.50;;;1.62;69.89
75585;BME280;64162;53.508;10.476;2024-01-11T02:29:03;102868.09;;;1.39;70.81
75585;BME280;64162;53.508;10.476;2024-01-11T02:31:30;102867.78;;;1.49;70.65
75585;BME280;64162;53.508;10.476;2024-01-11T02:33:59;102873.81;;;1.17;71.30
75585;BME280;64162;53.508;10.476;2024-01-11T02:36:26;102875.16;;;1.58;70.57
75585;BME280;64162;53.508;10.476;2024-01-11T02:38:53;102883.91;;;1.78;70.04
75585;BME280;64162;53.508;10.476;2024-01-11T02:41:20;102869.59;;;1.46;71.41
75585;BME280;64162;53.508;10.476;2024-01-11T02:43:48;102855.16;;;1.45;70.84
75585;BME280;64162;53.508;10.476;2024-01-11T02:46:15;102865.66;;;1.62;70.23
75585;BME280;64162;53.508;10.476;2024-01-11T02:48:45;102862.66;;;2.03;69.44
75585;BME280;64162;53.508;10.476;2024-01-11T02:51:11;102868.22;;;1.34;71.14
75585;BME280;64162;53.508;10.476;2024-01-11T02:53:38;102867.63;;;2.08;69.26
75585;BME280;64162;53.508;10.476;2024-01-11T02:56:05;102858.03;;;1.88;68.64
75585;BME280;64162;53.508;10.476;2024-01-11T02:58:34;102847.81;;;1.88;69.78
75585;BME280;64162;53.508;10.476;2024-01-11T03:01:01;102842.47;;;1.96;69.50
75585;BME280;64162;53.508;10.476;2024-01-11T03:03:28;102846.50;;;1.49;70.50
75585;BME280;64162;53.508;10.476;2024-01-11T03:05:55;102849.03;;;1.77;70.13
75585;BME280;64162;53.508;10.476;2024-01-11T03:08:21;102833.72;;;1.50;71.02
75585;BME280;64162;53.508;10.476;2024-01-11T03:10:48;102839.84;;;1.97;69.94
75585;BME280;64162;53.508;10.476;2024-01-11T03:13:15;102848.00;;;2.08;69.58
75585;BME280;64162;53.508;10.476;2024-01-11T03:15:41;102844.53;;;1.31;71.00
75585;BME280;64162;53.508;10.476;2024-01-11T03:18:08;102843.63;;;2.37;68.59
75585;BME280;64162;53.508;10.476;2024-01-11T03:20:49;102852.25;;;1.83;68.83
75585;BME280;64162;53.508;10.476;2024-01-11T03:23:19;102859.72;;;1.89;69.72
75585;BME280;64162;53.508;10.476;2024-01-11T03:25:45;102852.78;;;2.19;69.24
75585;BME280;64162;53.508;10.476;2024-01-11T03:28:15;102836.63;;;1.66;69.77
75585;BME280;64162;53.508;10.476;2024-01-11T03:30:42;102843.81;;;1.53;70.68
75585;BME280;64162;53.508;10.476;2024-01-11T03:33:12;102841.34;;;1.78;69.94
75585;BME280;64162;53.508;10.476;2024-01-11T03:35:38;102840.44;;;1.79;69.68
75585;BME280;64162;53.508;10.476;2024-01-11T03:38:07;102836.97;;;1.55;70.42
75585;BME280;64162;53.508;10.476;2024-01-11T03:40:37;102838.28;;;2.20;69.61
75585;BME280;64162;53.508;10.476;2024-01-11T03:43:11;102847.94;;;2.36;68.38
75585;BME280;64162;53.508;10.476;2024-01-11T03:45:39;102851.16;;;1.90;69.54
75585;BME280;64162;53.508;10.476;2024-01-11T03:48:08;102866.72;;;1.83;69.43
75585;BME280;64162;53.508;10.476;2024-01-11T03:50:35;102861.97;;;1.98;69.29
75585;BME280;64162;53.508;10.476;2024-01-11T03:53:01;102871.66;;;1.89;69.40
75585;BME280;64162;53.508;10.476;2024-01-11T03:55:29;102868.84;;;1.13;71.54
75585;BME280;64162;53.508;10.476;2024-01-11T03:57:56;102855.31;;;2.19;68.93
75585;BME280;64162;53.508;10.476;2024-01-11T04:00:22;102858.66;;;1.68;70.59
75585;BME280;64162;53.508;10.476;2024-01-11T04:02:52;102841.91;;;2.12;69.37
75585;BME280;64162;53.508;10.476;2024-01-11T04:05:18;102827.06;;;1.97;69.21
75585;BME280;64162;53.508;10.476;2024-01-11T04:07:45;102815.97;;;1.72;70.78
75585;BME280;64162;53.508;10.476;2024-01-11T04:10:12;102797.75;;;1.83;70.00
75585;BME280;64162;53.508;10.476;2024-01-11T04:12:38;102793.44;;;1.85;70.18
75585;BME280;64162;53.508;10.476;2024-01-11T04:15:05;102789.25;;;2.08;69.92
75585;BME280;64162;53.508;10.476;2024-01-11T04:17:32;102802.50;;;1.68;70.57
75585;BME280;64162;53.508;10.476;2024-01-11T04:19:59;102797.63;;;1.87;70.04
75585;BME280;64162;53.508;10.476;2024-01-11T04:22:28;102804.25;;;1.66;70.64
75585;BME280;64162;53.508;10.476;2024-01-11T04:24:54;102794.16;;;2.14;68.72
75585;BME280;64162;53.508;10.476;2024-01-11T04:27:23;102799.28;;;1.62;70.23
75585;BME280;64162;53.508;10.476;2024-01-11T04:29:50;102803.88;;;1.24;71.48
75585;BME280;64162;53.508;10.476;2024-01-11T04:32:19;102772.41;;;2.03;69.77
75585;BME280;64162;53.508;10.476;2024-01-11T04:34:46;102775.72;;;1.80;70.54
75585;BME280;64162;53.508;10.476;2024-01-11T04:37:15;102765.47;;;2.31;68.74
75585;BME280;64162;53.508;10.476;2024-01-11T04:39:44;102782.25;;;1.89;69.95
75585;BME280;64162;53.508;10.476;2024-01-11T04:42:11;102785.16;;;1.78;70.12
75585;BME280;64162;53.508;10.476;2024-01-11T04:44:38;102792.22;;;1.44;70.84
75585;BME280;64162;53.508;10.476;2024-01-11T04:47:04;102784.75;;;1.64;70.97
75585;BME280;64162;53.508;10.476;2024-01-11T04:49:34;102765.41;;;2.08;69.22
75585;BME280;64162;53.508;10.476;2024-01-11T04:52:01;102765.31;;;2.59;68.45
75585;BME280;64162;53.508;10.476;2024-01-11T04:54:35;102780.56;;;1.88;70.00
75585;BME280;64162;53.508;10.476;2024-01-11T04:57:01;102789.91;;;1.89;70.19
75585;BME280;64162;53.508;10.476;2024-01-11T04:59:29;102791.91;;;2.05;70.18
75585;BME280;64162;53.508;10.476;2024-01-11T05:01:58;102772.81;;;1.91;70.27
75585;BME280;64162;53.508;10.476;2024-01-11T05:04:25;102776.47;;;2.08;69.68
75585;BME280;64162;53.508;10.476;2024-01-11T05:06:52;102760.56;;;2.00;69.90
75585;BME280;64162;53.508;10.476;2024-01-11T05:09:19;102756.84;;;1.84;69.84
75585;BME280;64162;53.508;10.476;2024-01-11T05:11:45;102755.00;;;1.63;71.25
75585;BME280;64162;53.508;10.476;2024-01-11T05:14:14;102754.34;;;1.83;71.13
75585;BME280;64162;53.508;10.476;2024-01-11T05:16:44;102734.94;;;1.77;70.60
75585;BME280;64162;53.508;10.476;2024-01-11T05:19:16;102752.69;;;1.29;72.05
75585;BME280;64162;53.508;10.476;2024-01-11T05:21:43;102767.88;;;1.32;71.92
75585;BME280;64162;53.508;10.476;2024-01-11T05:24:09;102793.69;;;1.77;70.80
75585;BME280;64162;53.508;10.476;2024-01-11T05:26:37;102797.81;;;1.81;70.48
75585;BME280;64162;53.508;10.476;2024-01-11T05:29:03;102793.19;;;1.92;70.30
75585;BME280;64162;53.508;10.476;2024-01-11T05:31:33;102803.81;;;2.31;69.67
75585;BME280;64162;53.508;10.476;2024-01-11T05:34:00;102805.28;;;1.87;69.43
75585;BME280;64162;53.508;10.476;2024-01-11T05:36:26;102801.09;;;2.11;69.36
75585;BME280;64162;53.508;10.476;2024-01-11T05:38:54;102820.09;;;1.76;70.23
75585;BME280;64162;53.508;10.476;2024-01-11T05:41:23;102794.81;;;2.44;68.17
75585;BME280;64162;53.508;10.476;2024-01-11T05:43:50;102790.75;;;1.89;70.07
75585;BME280;64162;53.508;10.476;2024-01-11T05:46:20;102780.22;;;1.72;71.22
75585;BME280;64162;53.508;10.476;2024-01-11T05:48:46;102787.75;;;1.50;71.55
75585;BME280;64162;53.508;10.476;2024-01-11T05:51:13;102785.44;;;1.95;71.12
75585;BME280;64162;53.508;10.476;2024-01-11T05:53:39;102767.94;;;1.83;70.37
75585;BME280;64162;53.508;10.476;2024-01-11T05:56:08;102766.09;;;1.88;70.82
75585;BME280;64162;53.508;10.476;2024-01-11T05:58:39;102784.66;;;1.67;70.27
75585;BME280;64162;53.508;10.476;2024-01-11T06:01:06;102779.16;;;1.79;70.85
75585;BME280;64162;53.508;10.476;2024-01-11T06:03:33;102760.22;;;2.11;70.29
75585;BME280;64162;53.508;10.476;2024-01-11T06:06:09;102770.00;;;1.98;70.32
75585;BME280;64162;53.508;10.476;2024-01-11T06:08:36;102755.91;;;2.36;69.31
75585;BME280;64162;53.508;10.476;2024-01-11T06:11:05;102740.03;;;2.27;68.93
75585;BME280;64162;53.508;10.476;2024-01-11T06:13:36;102758.31;;;1.91;70.14
75585;BME280;64162;53.508;10.476;2024-01-11T06:16:06;102778.78;;;1.65;70.88
75585;BME280;64162;53.508;10.476;2024-01-11T06:18:37;102766.56;;;1.47;71.70
75585;BME280;64162;53.508;10.476;2024-01-11T06:21:07;102758.19;;;1.96;70.68
75585;BME280;64162;53.508;10.476;2024-01-11T06:23:33;102770.31;;;1.89;69.77
75585;BME280;64162;53.508;10.476;2024-01-11T06:26:00;102768.09;;;1.52;71.41
75585;BME280;64162;53.508;10.476;2024-01-11T06:28:27;102769.56;;;1.61;70.97
75585;BME280;64162;53.508;10.476;2024-01-11T06:30:53;102777.34;;;2.32;69.16
75585;BME280;64162;53.508;10.476;2024-01-11T06:33:20;102779.03;;;1.82;70.29
75585;BME280;64162;53.508;10.476;2024-01-11T06:35:47;102766.34;;;1.26;72.26
75585;BME280;64162;53.508;10.476;2024-01-11T06:38:13;102780.56;;;2.12;69.55
75585;BME280;64162;53.508;10.476;2024-01-11T06:40:48;102780.03;;;1.25;72.60
75585;BME280;64162;53.508;10.476;2024-01-11T06:43:15;102795.81;;;1.64;71.58
75585;BME280;64162;53.508;10.476;2024-01-11T06:45:45;102780.16;;;1.75;70.23
75585;BME280;64162;53.508;10.476;2024-01-11T06:48:12;102783.00;;;1.66;70.00
75585;BME280;64162;53.508;10.476;2024-01-11T06:50:38;102777.69;;;1.72;70.74
75585;BME280;64162;53.508;10.476;2024-01-11T06:53:05;102787.31;;;2.15;69.17
75585;BME280;64162;53.508;10.476;2024-01-11T06:55:32;102784.66;;;2.18;69.57
75585;BME280;64162;53.508;10.476;2024-01-11T06:58:02;102786.66;;;1.84;70.80
75585;BME280;64162;53.508;10.476;2024-01-11T07:00:29;102786.41;;;1.91;69.21
75585;BME280;64162;53.508;10.476;2024-01-11T07:02:56;102774.84;;;1.55;69.86
75585;BME280;64162;53.508;10.476;2024-01-11T07:05:22;102773.06;;;1.57;70.54
75585;BME280;64162;53.508;10.476;2024-01-11T07:07:49;102784.88;;;1.61;70.88
75585;BME280;64162;53.508;10.476;2024-01-11T07:10:16;102773.53;;;1.94;70.15
75585;BME280;64162;53.508;10.476;2024-01-11T07:12:45;102785.31;;;1.98;69.40
75585;BME280;64162;53.508;10.476;2024-01-11T07:15:14;102800.34;;;2.07;69.45
75585;BME280;64162;53.508;10.476;2024-01-11T07:17:43;102808.16;;;1.22;72.71
75585;BME280;64162;53.508;10.476;2024-01-11T07:20:11;102819.41;;;1.45;72.69
75585;BME280;64162;53.508;10.476;2024-01-11T07:22:37;102819.22;;;1.23;71.97
75585;BME280;64162;53.508;10.476;2024-01-11T07:25:05;102814.59;;;1.06;73.30
75585;BME280;64162;53.508;10.476;2024-01-11T07:27:32;102802.63;;;1.90;71.12
75585;BME280;64162;53.508;10.476;2024-01-11T07:29:59;102791.56;;;1.37;71.70
75585;BME280;64162;53.508;10.476;2024-01-11T07:32:25;102795.22;;;1.83;71.06
75585;BME280;64162;53.508;10.476;2024-01-11T07:34:56;102799.16;;;1.91;70.32
75585;BME280;64162;53.508;10.476;2024-01-11T07:37:23;102812.63;;;1.96;70.59
75585;BME280;64162;53.508;10.476;2024-01-11T07:39:52;102818.78;;;1.37;71.48
75585;BME280;64162;53.508;10.476;2024-01-11T07:42:18;102820.09;;;1.76;71.40
75585;BME280;64162;53.508;10.476;2024-01-11T07:44:46;102822.22;;;2.16;70.45
75585;BME280;64162;53.508;10.476;2024-01-11T07:47:12;102802.88;;;2.57;68.60
75585;BME280;64162;53.508;10.476;2024-01-11T07:49:39;102815.34;;;2.16;68.86
75585;BME280;64162;53.508;10.476;2024-01-11T07:52:06;102794.53;;;8.69;59.70
75585;BME280;64162;53.508;10.476;2024-01-11T07:54:32;102796.97;;;4.87;58.62
75585;BME280;64162;53.508;10.476;2024-01-11T07:57:01;102802.38;;;3.39;65.39
75585;BME280;64162;53.508;10.476;2024-01-11T07:59:33;102795.69;;;3.57;64.89
75585;BME280;64162;53.508;10.476;2024-01-11T08:01:59;102805.81;;;3.38;65.85
75585;BME280;64162;53.508;10.476;2024-01-11T08:04:28;102810.47;;;3.50;69.11
75585;BME280;64162;53.508;10.476;2024-01-11T08:06:54;102806.84;;;4.57;67.20
75585;BME280;64162;53.508;10.476;2024-01-11T08:09:24;102809.50;;;3.53;67.64
75585;BME280;64162;53.508;10.476;2024-01-11T08:11:51;102815.94;;;3.41;68.89
75585;BME280;64162;53.508;10.476;2024-01-11T08:14:24;102807.38;;;2.97;68.21
75585;BME280;64162;53.508;10.476;2024-01-11T08:16:52;102794.69;;;2.47;69.67
75585;BME280;64162;53.508;10.476;2024-01-11T08:19:25;102784.53;;;2.69;69.78
75585;BME280;64162;53.508;10.476;2024-01-11T08:21:51;102798.88;;;2.50;69.70
75585;BME280;64162;53.508;10.476;2024-01-11T08:24:23;102801.34;;;2.76;69.38
75585;BME280;64162;53.508;10.476;2024-01-11T08:26:54;102801.41;;;2.51;70.42
75585;BME280;64162;53.508;10.476;2024-01-11T08:29:20;102811.72;;;2.24;70.43
75585;BME280;64162;53.508;10.476;2024-01-11T08:31:49;102793.97;;;2.44;70.71
75585;BME280;64162;53.508;10.476;2024-01-11T08:34:15;102797.81;;;2.79;69.48
75585;BME280;64162;53.508;10.476;2024-01-11T08:36:43;102803.16;;;2.49;70.45
75585;BME280;64162;53.508;10.476;2024-01-11T08:39:09;102797.88;;;2.54;69.66
75585;BME280;64162;53.508;10.476;2024-01-11T08:41:37;102795.09;;;2.60;70.20
75585;BME280;64162;53.508;10.476;2024-01-11T08:44:04;102775.91;;;2.95;69.74
75585;BME280;64162;53.508;10.476;2024-01-11T08:46:34;102769.03;;;2.50;70.22
75585;BME280;64162;53.508;10.476;2024-01-11T08:49:01;102786.84;;;2.98;69.72
75585;BME280;64162;53.508;10.476;2024-01-11T08:51:31;102777.53;;;2.74;70.21
75585;BME280;64162;53.508;10.476;2024-01-11T08:54:01;102789.38;;;3.43;67.94
75585;BME280;64162;53.508;10.476;2024-01-11T08:56:30;102796.47;;;2.92;69.64
75585;BME280;64162;53.508;10.476;2024-01-11T08:58:59;102783.38;;;3.44;67.82
75585;BME280;64162;53.508;10.476;2024-01-11T09:01:28;102786.59;;;3.06;69.57
75585;BME280;64162;53.508;10.476;2024-01-11T09:03:59;102774.44;;;3.11;68.78
75585;BME280;64162;53.508;10.476;2024-01-11T09:06:26;102763.25;;;2.69;70.66
75585;BME280;64162;53.508;10.476;2024-01-11T09:08:52;102753.81;;;2.92;70.04
75585;BME280;64162;53.508;10.476;2024-01-11T09:11:19;102760.59;;;2.93;70.81
75585;BME280;64162;53.508;10.476;2024-01-11T09:13:49;102747.72;;;2.96;69.51
75585;BME280;64162;53.508;10.476;2024-01-11T09:16:19;102763.66;;;3.25;69.08
75585;BME280;64162;53.508;10.476;2024-01-11T09:18:46;102766.38;;;2.98;70.90
75585;BME280;64162;53.508;10.476;2024-01-11T09:21:14;102759.97;;;3.10;70.04
75585;BME280;64162;53.508;10.476;2024-01-11T09:23:43;102747.66;;;3.20;69.88
75585;BME280;64162;53.508;10.476;2024-01-11T09:26:10;102743.56;;;2.92;70.39
75585;BME280;64162;53.508;10.476;2024-01-11T09:28:37;102744.56;;;3.12;70.07
75585;BME280;64162;53.508;10.476;2024-01-11T09:31:03;102757.69;;;3.02;71.18
75585;BME280;64162;53.508;10.476;2024-01-11T09:33:30;102757.94;;;3.40;69.75
75585;BME280;64162;53.508;10.476;2024-01-11T09:35:57;102748.31;;;3.25;70.74
75585;BME280;64162;53.508;10.476;2024-01-11T09:38:23;102757.22;;;2.93;71.61
75585;BME280;64162;53.508;10.476;2024-01-11T09:41:12;102756.97;;;3.84;68.52
75585;BME280;64162;53.508;10.476;2024-01-11T09:43:53;102751.47;;;3.10;71.05
75585;BME280;64162;53.508;10.476;2024-01-11T09:46:21;102776.16;;;3.32;70.22
75585;BME280;64162;53.508;10.476;2024-01-11T09:48:50;102767.25;;;2.97;71.11
75585;BME280;64162;53.508;10.476;2024-01-11T09:51:20;102759.34;;;3.47;70.17
75585;BME280;64162;53.508;10.476;2024-01-11T09:53:47;102743.38;;;3.42;70.35
75585;BME280;64162;53.508;10.476;2024-01-11T09:56:17;102766.78;;;3.53;70.41
75585;BME280;64162;53.508;10.476;2024-01-11T09:58:47;102760.91;;;3.51;70.68
75585;BME280;64162;53.508;10.476;2024-01-11T10:01:20;102744.13;;;3.22;70.95
75585;BME280;64162;53.508;10.476;2024-01-11T10:03:47;102738.84;;;3.27;71.19
75585;BME280;64162;53.508;10.476;2024-01-11T10:06:14;102749.66;;;3.55;70.76
75585;BME280;64162;53.508;10.476;2024-01-11T10:08:45;102743.84;;;3.92;70.18
75585;BME280;64162;53.508;10.476;2024-01-11T10:11:11;102753.03;;;3.56;70.13
75585;BME280;64162;53.508;10.476;2024-01-11T10:13:40;102754.19;;;3.69;69.74
75585;BME280;64162;53.508;10.476;2024-01-11T10:16:13;102756.41;;;3.36;70.97
75585;BME280;64162;53.508;10.476;2024-01-11T10:18:40;102735.16;;;3.54;72.08
75585;BME280;64162;53.508;10.476;2024-01-11T10:21:08;102751.16;;;3.39;70.57
75585;BME280;64162;53.508;10.476;2024-01-11T10:23:36;102743.66;;;3.34;71.18
75585;BME280;64162;53.508;10.476;2024-01-11T10:26:03;102738.13;;;3.65;70.87
75585;BME280;64162;53.508;10.476;2024-01-11T10:28:30;102744.00;;;3.67;70.77
75585;BME280;64162;53.508;10.476;2024-01-11T10:30:57;102740.66;;;4.26;68.78
75585;BME280;64162;53.508;10.476;2024-01-11T10:33:24;102738.44;;;3.78;70.29
75585;BME280;64162;53.508;10.476;2024-01-11T10:36:00;102752.19;;;4.36;68.29
75585;BME280;64162;53.508;10.476;2024-01-11T10:38:30;102745.66;;;4.29;68.71
75585;BME280;64162;53.508;10.476;2024-01-11T10:41:05;102759.50;;;4.25;68.38
75585;BME280;64162;53.508;10.476;2024-01-11T10:43:37;102751.97;;;3.81;70.93
75585;BME280;64162;53.508;10.476;2024-01-11T10:46:05;102768.28;;;4.58;68.36
75585;BME280;64162;53.508;10.476;2024-01-11T10:48:37;102766.72;;;4.17;70.10
75585;BME280;64162;53.508;10.476;2024-01-11T10:51:08;102769.94;;;4.59;68.50
75585;BME280;64162;53.508;10.476;2024-01-11T10:53:44;102782.31;;;4.89;70.65
75585;BME280;64162;53.508;10.476;2024-01-11T10:56:13;102768.63;;;4.51;69.00
75585;BME280;64162;53.508;10.476;2024-01-11T10:58:40;102756.44;;;4.37;68.83
75585;BME280;64162;53.508;10.476;2024-01-11T11:01:28;102756.75;;;4.29;69.29
75585;BME280;64162;53.508;10.476;2024-01-11T11:03:56;102767.56;;;4.36;69.95
75585;BME280;64162;53.508;10.476;2024-01-11T11:06:26;102753.88;;;4.74;68.84
75585;BME280;64162;53.508;10.476;2024-01-11T11:08:55;102752.59;;;4.27;70.61
75585;BME280;64162;53.508;10.476;2024-01-11T11:11:27;102755.28;;;4.43;69.58
75585;BME280;64162;53.508;10.476;2024-01-11T11:13:57;102741.06;;;4.17;70.71
75585;BME280;64162;53.508;10.476;2024-01-11T11:16:25;102734.75;;;4.24;70.89
75585;BME280;64162;53.508;10.476;2024-01-11T11:18:54;102749.13;;;4.08;71.01
75585;BME280;64162;53.508;10.476;2024-01-11T11:21:25;102728.00;;;4.42;70.25
75585;BME280;64162;53.508;10.476;2024-01-11T11:23:55;102722.09;;;4.21;70.87
75585;BME280;64162;53.508;10.476;2024-01-11T11:26:26;102708.84;;;4.30;70.87
75585;BME280;64162;53.508;10.476;2024-01-11T11:28:53;102723.28;;;4.70;69.23
75585;BME280;64162;53.508;10.476;2024-01-11T11:31:44;102718.53;;;5.69;67.38
75585;BME280;64162;53.508;10.476;2024-01-11T11:34:14;102745.69;;;4.85;70.17
75585;BME280;64162;53.508;10.476;2024-01-11T11:36:41;102732.84;;;4.29;71.37
75585;BME280;64162;53.508;10.476;2024-01-11T11:39:10;102725.22;;;4.27;70.96
75585;BME280;64162;53.508;10.476;2024-01-11T11:41:49;102736.31;;;4.08;70.94
75585;BME280;64162;53.508;10.476;2024-01-11T11:44:16;102723.56;;;4.26;71.32
75585;BME280;64162;53.508;10.476;2024-01-11T11:46:43;102741.94;;;4.36;71.44
75585;BME280;64162;53.508;10.476;2024-01-11T11:49:11;102720.22;;;4.24;72.07
75585;BME280;64162;53.508;10.476;2024-01-11T11:51:40;102726.13;;;4.64;70.21
75585;BME280;64162;53.508;10.476;2024-01-11T11:54:08;102711.34;;;4.69;70.97
75585;BME280;64162;53.508;10.476;2024-01-11T11:56:44;102682.34;;;4.86;70.03
75585;BME280;64162;53.508;10.476;2024-01-11T11:59:11;102682.69;;;4.42;70.99
75585;BME280;64162;53.508;10.476;2024-01-11T12:01:39;102676.78;;;4.95;69.58
75585;BME280;64162;53.508;10.476;2024-01-11T12:04:08;102680.44;;;4.72;69.94
75585;BME280;64162;53.508;10.476;2024-01-11T12:06:35;102684.88;;;4.68;70.91
75585;BME280;64162;53.508;10.476;2024-01-11T12:09:04;102685.84;;;4.66;71.31
75585;BME280;64162;53.508;10.476;2024-01-11T12:11:34;102673.66;;;4.88;70.09
75585;BME280;64162;53.508;10.476;2024-01-11T12:14:01;102667.81;;;5.03;70.44
75585;BME280;64162;53.508;10.476;2024-01-11T12:16:28;102669.69;;;4.83;70.47
75585;BME280;64162;53.508;10.476;2024-01-11T12:18:55;102665.56;;;4.79;70.94
75585;BME280;64162;53.508;10.476;2024-01-11T12:21:24;102671.59;;;4.96;69.68
75585;BME280;64162;53.508;10.476;2024-01-11T12:23:56;102656.28;;;5.12;69.71
75585;BME280;64162;53.508;10.476;2024-01-11T12:26:23;102671.09;;;4.52;72.01
75585;BME280;64162;53.508;10.476;2024-01-11T12:28:50;102661.72;;;4.51;72.18
75585;BME280;64162;53.508;10.476;2024-01-11T12:31:18;102672.34;;;4.62;71.68
75585;BME280;64162;53.508;10.476;2024-01-11T12:33:53;102670.59;;;4.44;71.11
75585;BME280;64162;53.508;10.476;2024-01-11T12:36:23;102661.47;;;5.10;69.93
75585;BME280;64162;53.508;10.476;2024-01-11T12:38:49;102665.84;;;4.37;72.54
75585;BME280;64162;53.508;10.476;2024-01-11T12:41:17;102666.00;;;5.05;71.09
75585;BME280;64162;53.508;10.476;2024-01-11T12:43:44;102672.47;;;4.59;71.76
75585;BME280;64162;53.508;10.476;2024-01-11T12:46:14;102671.53;;;5.15;70.89
75585;BME280;64162;53.508;10.476;2024-01-11T12:48:41;102688.66;;;4.79;71.27
75585;BME280;64162;53.508;10.476;2024-01-11T12:51:16;102669.69;;;5.00;70.41
75585;BME280;64162;53.508;10.476;2024-01-11T12:53:50;102660.19;;;5.02;70.31
75585;BME280;64162;53.508;10.476;2024-01-11T12:56:17;102667.16;;;5.17;70.68